Time;durP1;ratioP1;P1;durP2;ratioP2;P2;SDS_P1;SDS_P2;PMS_P1;PMS_P2;Temp;Humidity;BMP_temperature;BMP_pressure;BME280_temperature;BME280_humidity;BME280_pressure;Samples;Min_cycle;Max_cycle;Signal;HPM_P1;HPM_P2
2023/06/12 00:00:07;;;;;;;;;12.75;10.25;26.90;50.80;;;;;;111381;1241;44687;-64
2023/06/12 00:02:34;;;;;;;;;11.00;10.00;26.90;50.90;;;;;;111439;1241;50439;-64
2023/06/12 00:05:02;;;;;;;;;10.25;9.00;26.80;50.80;;;;;;111268;1239;49177;-66
2023/06/12 00:07:30;;;;;;;;;11.00;10.00;26.80;50.90;;;;;;111249;1238;53742;-67
2023/06/12 00:09:57;;;;;;;;;11.00;10.00;26.80;50.80;;;;;;111169;1241;44326;-65
2023/06/12 00:12:24;;;;;;;;;10.67;9.67;26.80;50.80;;;;;;111230;1243;49880;-65
2023/06/12 00:14:51;;;;;;;;;10.00;9.00;26.80;50.80;;;;;;111217;1243;49883;-64
2023/06/12 00:17:18;;;;;;;;;9.67;9.00;26.80;50.90;;;;;;111412;1241;54521;-65
2023/06/12 00:19:45;;;;;;;;;12.25;11.25;26.80;50.90;;;;;;111377;1238;44537;-65
2023/06/12 00:22:12;;;;;;;;;9.25;8.25;26.80;50.90;;;;;;111238;1243;49711;-64
2023/06/12 00:24:39;;;;;;;;;11.00;10.00;26.80;51.10;;;;;;111240;1244;48816;-64
2023/06/12 00:27:06;;;;;;;;;12.00;11.00;26.70;50.90;;;;;;111158;1244;53263;-65
2023/06/12 00:29:33;;;;;;;;;10.00;9.00;26.80;50.90;;;;;;111169;1244;44822;-64
2023/06/12 00:31:59;;;;;;;;;10.00;9.00;26.80;50.90;;;;;;111434;1245;50393;-65
2023/06/12 00:34:26;;;;;;;;;11.00;9.75;26.70;50.80;;;;;;111188;1241;48988;-64
2023/06/12 00:36:54;;;;;;;;;11.00;10.00;26.70;51.40;;;;;;111192;1240;54108;-64
2023/06/12 00:39:21;;;;;;;;;10.75;9.75;26.70;50.80;;;;;;111199;1241;44299;-65
2023/06/12 00:41:47;;;;;;;;;13.25;9.75;26.70;50.80;;;;;;111040;1244;49121;-63
2023/06/12 00:44:15;;;;;;;;;9.00;8.25;26.70;50.80;;;;;;111175;1240;49993;-63
2023/06/12 00:46:42;;;;;;;;;12.67;10.00;26.70;50.80;;;;;;111004;1241;54369;-63
2023/06/12 00:49:09;;;;;;;;;11.00;9.75;26.70;51.00;;;;;;111087;1244;44967;-66
2023/06/12 00:51:36;;;;;;;;;13.00;12.00;26.70;51.00;;;;;;111181;1244;49262;-64
2023/06/12 00:54:03;;;;;;;;;12.00;11.00;26.70;50.90;;;;;;111190;1244;49584;-64
2023/06/12 00:56:30;;;;;;;;;11.00;10.00;26.70;50.80;;;;;;111462;1242;55140;-66
2023/06/12 00:58:57;;;;;;;;;11.00;10.00;26.70;50.80;;;;;;111179;1244;44768;-65
2023/06/12 01:01:25;;;;;;;;;12.00;11.00;26.70;50.80;;;;;;111154;1244;49413;-65
2023/06/12 01:03:56;;;;;;;;;10.00;9.00;26.70;50.80;;;;;;111145;1238;49509;-64
2023/06/12 01:06:39;;;;;;;;;12.00;10.75;26.70;50.80;;;;;;111158;1238;53578;-66
2023/06/12 01:09:17;;;;;;;;;12.50;10.00;26.70;51.30;;;;;;111202;1244;44668;-65
2023/06/12 01:11:46;;;;;;;;;11.00;9.75;26.70;50.70;;;;;;111176;1240;50195;-65
2023/06/12 01:14:17;;;;;;;;;11.00;10.00;26.80;50.90;;;;;;111042;1244;49798;-65
2023/06/12 01:16:48;;;;;;;;;11.67;10.33;26.70;50.70;;;;;;111138;1244;53991;-64
2023/06/12 01:19:19;;;;;;;;;11.00;10.00;26.70;50.70;;;;;;111201;1243;44467;-65
2023/06/12 01:21:52;;;;;;;;;10.75;9.75;26.70;50.70;;;;;;111187;1240;49557;-65
2023/06/12 01:24:28;;;;;;;;;12.25;11.25;26.70;51.20;;;;;;110265;1241;49027;-65
2023/06/12 01:27:34;;;;;;;;;10.75;9.75;26.70;50.80;;;;;;111156;1244;53977;-64
2023/06/12 01:30:10;;;;;;;;;11.00;10.00;26.70;50.70;;;;;;111199;1244;44890;-64
2023/06/12 01:32:39;;;;;;;;;9.75;8.50;26.70;50.60;;;;;;111153;1240;48875;-64
2023/06/12 01:35:11;;;;;;;;;10.00;8.75;26.70;50.80;;;;;;111198;1246;49220;-64
2023/06/12 01:37:47;;;;;;;;;11.00;10.00;26.70;50.60;;;;;;111229;1244;53989;-63
2023/06/12 01:40:16;;;;;;;;;10.00;9.50;26.70;50.80;;;;;;111208;1241;45000;-64
2023/06/12 01:42:43;;;;;;;;;9.75;8.50;26.70;50.60;;;;;;111213;1239;50025;-64
2023/06/12 01:45:10;;;;;;;;;10.67;9.67;26.70;50.60;;;;;;111198;1244;49892;-63
2023/06/12 01:47:37;;;;;;;;;12.50;11.25;26.70;50.70;;;;;;111143;1244;53302;-62
2023/06/12 01:50:05;;;;;;;;;10.00;8.75;26.70;50.70;;;;;;111159;1244;44789;-64
2023/06/12 01:52:32;;;;;;;;;9.50;8.50;26.60;50.70;;;;;;111206;1240;49700;-65
2023/06/12 01:55:00;;;;;;;;;11.75;9.00;26.60;50.90;;;;;;111091;1243;50559;-64
2023/06/12 01:57:27;;;;;;;;;10.00;9.00;26.60;50.70;;;;;;111192;1240;54488;-65
2023/06/12 01:59:55;;;;;;;;;11.75;10.75;26.60;50.70;;;;;;111370;1244;44483;-64
2023/06/12 02:02:24;;;;;;;;;12.50;9.75;26.60;50.90;;;;;;111210;1238;50063;-65
2023/06/12 02:04:52;;;;;;;;;12.00;9.00;26.60;50.80;;;;;;111154;1240;49443;-65
2023/06/12 02:07:19;;;;;;;;;9.50;8.50;26.50;50.90;;;;;;111109;1245;53772;-65
2023/06/12 02:09:46;;;;;;;;;11.25;10.25;26.50;50.70;;;;;;111022;1241;45498;-66
2023/06/12 02:12:13;;;;;;;;;11.25;9.00;26.50;50.70;;;;;;111200;1240;50398;-64
2023/06/12 02:14:41;;;;;;;;;10.00;9.00;26.50;50.80;;;;;;111388;1244;50248;-64
2023/06/12 02:17:08;;;;;;;;;10.00;9.00;26.50;50.80;;;;;;111377;1244;54835;-64
2023/06/12 02:19:36;;;;;;;;;10.75;10.00;26.50;50.70;;;;;;111329;1244;44680;-64
2023/06/12 02:22:03;;;;;;;;;11.00;10.00;26.50;50.80;;;;;;111285;1241;49178;-64
2023/06/12 02:24:32;;;;;;;;;11.00;10.00;26.50;50.80;;;;;;111178;1244;49726;-64
2023/06/12 02:26:59;;;;;;;;;9.00;8.00;26.50;50.80;;;;;;111169;1240;53477;-64
2023/06/12 02:29:26;;;;;;;;;11.75;10.75;26.50;51.00;;;;;;111157;1244;44574;-64
2023/06/12 02:31:53;;;;;;;;;8.00;7.00;26.50;51.00;;;;;;111153;1242;49844;-64
2023/06/12 02:34:20;;;;;;;;;10.75;9.75;26.50;50.30;;;;;;111236;1244;49219;-63
2023/06/12 02:36:47;;;;;;;;;11.75;11.00;26.50;50.80;;;;;;111044;1244;54057;-65
2023/06/12 02:39:15;;;;;;;;;10.75;9.75;26.50;50.80;;;;;;111197;1243;44399;-65
2023/06/12 02:41:43;;;;;;;;;10.75;9.75;26.50;50.80;;;;;;111171;1241;49737;-65
2023/06/12 02:44:10;;;;;;;;;9.25;8.00;26.50;50.80;;;;;;111227;1241;49376;-65
2023/06/12 02:46:51;;;;;;;;;13.00;9.00;26.50;50.90;;;;;;111141;1246;53046;-65
2023/06/12 02:49:19;;;;;;;;;10.75;9.50;26.50;50.90;;;;;;111267;1243;44935;-66
2023/06/12 02:51:46;;;;;;;;;11.75;10.75;26.50;50.80;;;;;;111186;1241;49643;-65
2023/06/12 02:54:14;;;;;;;;;10.00;9.00;26.50;50.80;;;;;;111227;1240;50026;-65
2023/06/12 02:56:42;;;;;;;;;12.00;10.00;26.50;50.90;;;;;;111001;1242;54356;-66
2023/06/12 02:59:10;;;;;;;;;10.75;9.75;26.50;50.80;;;;;;111266;1244;44979;-66
2023/06/12 03:01:43;;;;;;;;;9.75;8.75;26.50;50.80;;;;;;111187;1243;50348;-65
2023/06/12 03:04:20;;;;;;;;;10.00;9.00;26.50;50.90;;;;;;111043;1245;49694;-66
2023/06/12 03:06:52;;;;;;;;;11.00;10.00;26.50;50.90;;;;;;111098;1244;54492;-65
2023/06/12 03:09:20;;;;;;;;;11.00;9.00;26.50;50.80;;;;;;111179;1238;45076;-65
2023/06/12 03:11:48;;;;;;;;;11.75;10.50;26.50;50.80;;;;;;111205;1241;49542;-67
2023/06/12 03:14:16;;;;;;;;;10.00;9.00;26.50;51.00;;;;;;111084;1243;49465;-67
2023/06/12 03:16:43;;;;;;;;;18.00;11.75;26.50;51.30;;;;;;111051;1244;53400;-66
2023/06/12 03:19:10;;;;;;;;;11.00;10.00;26.40;51.70;;;;;;111150;1238;44956;-66
2023/06/12 03:21:37;;;;;;;;;14.00;13.00;26.50;51.90;;;;;;111150;1240;49069;-65
2023/06/12 03:24:04;;;;;;;;;14.00;12.00;26.50;51.80;;;;;;111421;1243;50303;-65
2023/06/12 03:26:32;;;;;;;;;16.25;13.50;26.50;51.90;;;;;;111015;1238;53598;-64
2023/06/12 03:28:58;;;;;;;;;16.00;15.00;26.50;52.20;;;;;;111178;1243;44490;-63
2023/06/12 03:31:26;;;;;;;;;12.75;11.75;26.50;52.10;;;;;;111460;1238;48635;-65
2023/06/12 03:33:56;;;;;;;;;13.00;11.75;26.50;52.10;;;;;;111304;1243;50345;-65
2023/06/12 03:36:25;;;;;;;;;13.00;12.00;26.40;51.90;;;;;;111042;1239;53983;-65
2023/06/12 03:38:52;;;;;;;;;12.00;10.00;26.40;51.90;;;;;;111186;1243;44510;-66
2023/06/12 03:41:23;;;;;;;;;14.33;13.00;26.40;51.90;;;;;;111162;1243;48805;-62
2023/06/12 03:43:50;;;;;;;;;12.00;11.00;26.40;52.20;;;;;;111207;1243;49582;-64
2023/06/12 03:46:17;;;;;;;;;13.33;12.00;26.40;51.90;;;;;;111055;1241;54209;-65
2023/06/12 03:48:44;;;;;;;;;15.00;12.00;26.40;51.90;;;;;;111280;1240;44565;-65
2023/06/12 03:51:11;;;;;;;;;13.00;11.75;26.40;52.20;;;;;;111512;1240;49161;-66
2023/06/12 03:53:39;;;;;;;;;15.00;12.50;26.40;52.70;;;;;;111297;1240;49656;-62
2023/06/12 03:56:07;;;;;;;;;10.00;9.00;26.40;52.40;;;;;;111250;1241;53440;-65
2023/06/12 03:58:34;;;;;;;;;13.25;12.00;26.40;53.10;;;;;;111255;1243;44679;-62
2023/06/12 04:01:01;;;;;;;;;17.25;12.75;26.40;53.10;;;;;;111503;1243;50173;-64
2023/06/12 04:03:28;;;;;;;;;13.67;11.00;26.40;53.60;;;;;;111361;1243;50369;-63
2023/06/12 04:05:55;;;;;;;;;11.00;10.00;26.40;53.50;;;;;;110920;1238;53596;-62
2023/06/12 04:08:22;;;;;;;;;14.67;11.33;26.40;53.60;;;;;;111354;1243;44854;-62
2023/06/12 04:10:50;;;;;;;;;16.25;13.25;26.50;53.20;;;;;;111204;1240;49853;-63
2023/06/12 04:13:17;;;;;;;;;15.50;12.00;26.50;53.00;;;;;;111282;1243;49597;-63
2023/06/12 04:15:44;;;;;;;;;14.50;13.50;26.50;52.80;;;;;;111781;1237;53762;-63
2023/06/12 04:18:12;;;;;;;;;16.75;13.75;26.50;52.70;;;;;;111438;1241;44616;-63
2023/06/12 04:20:39;;;;;;;;;17.00;15.75;26.50;52.50;;;;;;111221;1244;49760;-62
2023/06/12 04:23:11;;;;;;;;;36.00;26.50;26.60;52.60;;;;;;111286;1243;50258;-64
2023/06/12 04:25:38;;;;;;;;;30.67;21.00;26.60;52.60;;;;;;111727;1238;53903;-63
2023/06/12 04:28:07;;;;;;;;;24.00;19.67;26.60;52.50;;;;;;111446;1243;44805;-67
2023/06/12 04:30:35;;;;;;;;;19.50;18.50;26.70;52.30;;;;;;111276;1240;49220;-66
2023/06/12 04:33:03;;;;;;;;;21.75;18.25;26.70;52.20;;;;;;111271;1243;49058;-67
2023/06/12 04:35:33;;;;;;;;;25.50;20.50;26.70;52.30;;;;;;111044;1243;53419;-68
2023/06/12 04:38:00;;;;;;;;;20.50;19.50;26.70;52.40;;;;;;111283;1243;44827;-67
2023/06/12 04:40:27;;;;;;;;;23.75;18.00;26.70;52.30;;;;;;111359;1240;49030;-66
2023/06/12 04:42:56;;;;;;;;;24.67;21.67;26.70;52.30;;;;;;111297;1243;49862;-65
2023/06/12 04:45:23;;;;;;;;;17.67;16.67;26.70;52.70;;;;;;111686;1243;54502;-66
2023/06/12 04:47:51;;;;;;;;;21.00;17.00;26.70;52.70;;;;;;111311;1238;44353;-66
2023/06/12 04:50:19;;;;;;;;;19.33;15.67;26.80;52.80;;;;;;111547;1241;49627;-66
2023/06/12 04:52:47;;;;;;;;;18.00;16.33;26.80;52.90;;;;;;111386;1241;50140;-64
2023/06/12 04:55:20;;;;;;;;;18.50;14.00;26.80;53.10;;;;;;111736;1241;53836;-66
2023/06/12 04:57:52;;;;;;;;;20.25;14.75;26.80;53.00;;;;;;111316;1240;44050;-65
2023/06/12 05:00:20;;;;;;;;;18.50;14.00;26.80;52.40;;;;;;111328;1243;49199;-64
2023/06/12 05:02:49;;;;;;;;;13.50;12.00;26.80;51.70;;;;;;111439;1241;50521;-64
2023/06/12 05:05:16;;;;;;;;;12.75;10.00;26.90;51.50;;;;;;111238;1240;53422;-64
2023/06/12 05:07:46;;;;;;;;;12.75;11.75;26.80;51.80;;;;;;111325;1238;45792;-62
2023/06/12 05:10:15;;;;;;;;;12.00;10.75;26.80;51.10;;;;;;111206;1237;50081;-63
2023/06/12 05:12:42;;;;;;;;;10.50;9.25;26.80;51.00;;;;;;111183;1244;50205;-62
2023/06/12 05:15:10;;;;;;;;;12.00;11.00;26.80;50.60;;;;;;111220;1238;54072;-64
2023/06/12 05:17:37;;;;;;;;;11.00;10.00;26.80;50.70;;;;;;111339;1243;44336;-65
2023/06/12 05:20:09;;;;;;;;;11.50;10.25;26.80;51.00;;;;;;111214;1239;49207;-63
2023/06/12 05:22:36;;;;;;;;;9.75;9.00;26.80;51.20;;;;;;111223;1240;49842;-63
2023/06/12 05:25:04;;;;;;;;;12.00;9.00;26.80;51.30;;;;;;111223;1239;54639;-62
2023/06/12 05:27:31;;;;;;;;;11.50;10.50;26.80;51.20;;;;;;111311;1238;45102;-63
2023/06/12 05:29:59;;;;;;;;;10.00;9.00;26.80;51.50;;;;;;111256;1239;48974;-65
2023/06/12 05:32:28;;;;;;;;;12.00;9.00;26.80;51.30;;;;;;111281;1243;51155;-63
2023/06/12 05:34:55;;;;;;;;;14.25;12.00;26.80;50.80;;;;;;111268;1243;53145;-64
2023/06/12 05:37:22;;;;;;;;;17.33;14.67;26.80;51.30;;;;;;111147;1240;44493;-65
2023/06/12 05:39:49;;;;;;;;;15.00;12.00;26.80;51.60;;;;;;111552;1243;50436;-65
2023/06/12 05:42:16;;;;;;;;;11.00;10.25;26.80;50.90;;;;;;111668;1238;49245;-66
2023/06/12 05:44:43;;;;;;;;;10.33;9.33;26.90;50.80;;;;;;111773;1239;53236;-64
2023/06/12 05:47:10;;;;;;;;;12.50;11.50;26.90;50.50;;;;;;111350;1240;44758;-64
2023/06/12 05:49:37;;;;;;;;;11.00;9.00;26.90;50.50;;;;;;111244;1238;49087;-65
2023/06/12 05:52:05;;;;;;;;;11.50;9.00;26.90;51.00;;;;;;111735;1241;49475;-63
2023/06/12 05:54:33;;;;;;;;;10.00;9.00;26.90;51.00;;;;;;111279;1238;53531;-64
2023/06/12 05:57:01;;;;;;;;;10.00;8.67;26.90;51.10;;;;;;111341;1240;44716;-65
2023/06/12 05:59:28;;;;;;;;;12.50;9.75;26.90;51.30;;;;;;111392;1243;48700;-66
2023/06/12 06:01:56;;;;;;;;;8.00;7.00;26.90;51.00;;;;;;111293;1242;49189;-65
2023/06/12 06:04:23;;;;;;;;;11.75;9.25;26.90;50.60;;;;;;111752;1239;54310;-65
2023/06/12 06:06:52;;;;;;;;;10.50;9.25;26.80;50.80;;;;;;111452;1238;44963;-64
2023/06/12 06:09:19;;;;;;;;;10.00;9.25;26.80;50.80;;;;;;111370;1243;48962;-66
2023/06/12 06:11:46;;;;;;;;;10.25;9.25;26.90;50.90;;;;;;111450;1241;49197;-66
2023/06/12 06:14:14;;;;;;;;;11.75;9.00;26.80;50.80;;;;;;111246;1241;53742;-64
2023/06/12 06:16:41;;;;;;;;;9.33;8.00;26.80;50.70;;;;;;111235;1238;44876;-65
2023/06/12 06:19:09;;;;;;;;;9.00;8.00;26.80;50.40;;;;;;111393;1241;48495;-65
2023/06/12 06:21:36;;;;;;;;;12.00;9.00;26.70;50.40;;;;;;111192;1244;48468;-65
2023/06/12 06:24:03;;;;;;;;;10.50;9.50;26.70;51.00;;;;;;111280;1244;53180;-64
2023/06/12 06:26:31;;;;;;;;;8.50;7.50;26.70;50.80;;;;;;111245;1240;45470;-65
2023/06/12 06:28:58;;;;;;;;;8.00;7.00;26.70;50.90;;;;;;111264;1242;48652;-65
2023/06/12 06:31:27;;;;;;;;;9.00;8.00;26.70;50.70;;;;;;111378;1242;48744;-65
2023/06/12 06:33:53;;;;;;;;;9.67;7.67;26.70;50.80;;;;;;111338;1243;54584;-65
2023/06/12 06:36:23;;;;;;;;;13.00;10.00;26.70;51.00;;;;;;111722;1240;44938;-64
2023/06/12 06:38:51;;;;;;;;;11.25;8.75;26.70;51.10;;;;;;111229;1244;50923;-64
2023/06/12 06:41:18;;;;;;;;;10.25;8.00;26.70;51.00;;;;;;111393;1238;49413;-65
2023/06/12 06:43:45;;;;;;;;;8.00;7.00;26.70;51.00;;;;;;111395;1238;54901;-66
2023/06/12 06:46:12;;;;;;;;;8.00;7.00;26.70;51.00;;;;;;111664;1244;44098;-64
2023/06/12 06:48:39;;;;;;;;;12.00;8.50;26.70;50.90;;;;;;111317;1241;49866;-64
2023/06/12 06:51:06;;;;;;;;;8.00;7.00;26.70;50.90;;;;;;111297;1238;50060;-64
2023/06/12 06:53:33;;;;;;;;;9.00;8.00;26.70;50.50;;;;;;111314;1240;54569;-69
2023/06/12 06:56:00;;;;;;;;;8.00;7.00;26.60;50.50;;;;;;111626;1244;45078;-68
2023/06/12 06:58:27;;;;;;;;;9.00;8.00;26.70;50.70;;;;;;111305;1244;48841;-65
2023/06/12 07:00:54;;;;;;;;;8.00;7.00;26.70;50.70;;;;;;111271;1244;48584;-66
2023/06/12 07:03:21;;;;;;;;;8.75;7.75;26.70;49.70;;;;;;111546;1240;53648;-65
2023/06/12 07:05:48;;;;;;;;;9.75;7.00;26.70;49.20;;;;;;111416;1240;44633;-65
2023/06/12 07:08:15;;;;;;;;;8.00;7.00;26.70;50.10;;;;;;111414;1238;49167;-67
2023/06/12 07:10:42;;;;;;;;;7.25;6.25;26.70;49.90;;;;;;111375;1244;48420;-67
2023/06/12 07:13:09;;;;;;;;;8.00;7.00;26.70;49.80;;;;;;111466;1240;54472;-65
2023/06/12 07:15:36;;;;;;;;;9.50;7.50;26.70;49.90;;;;;;111497;1241;44272;-67
2023/06/12 07:18:04;;;;;;;;;7.00;6.00;26.70;49.20;;;;;;111539;1238;49197;-66
2023/06/12 07:20:31;;;;;;;;;8.50;7.75;26.70;49.20;;;;;;111443;1244;49085;-65
2023/06/12 07:22:59;;;;;;;;;8.00;7.00;26.70;49.50;;;;;;111471;1240;53728;-66
2023/06/12 07:25:26;;;;;;;;;9.25;8.00;26.70;48.70;;;;;;111744;1239;44921;-68
2023/06/12 07:27:53;;;;;;;;;7.50;6.25;26.70;49.10;;;;;;111358;1243;49032;-68
2023/06/12 07:30:20;;;;;;;;;9.00;7.00;26.70;49.80;;;;;;111310;1243;49503;-76
2023/06/12 07:32:47;;;;;;;;;8.75;7.75;26.80;49.20;;;;;;111506;1241;53401;-68
2023/06/12 07:35:15;;;;;;;;;8.00;7.00;26.70;49.60;;;;;;111299;1243;44966;-69
2023/06/12 07:37:42;;;;;;;;;8.33;7.33;26.70;49.30;;;;;;111830;1238;49781;-66
2023/06/12 07:40:10;;;;;;;;;8.00;6.75;26.80;49.10;;;;;;111333;1243;48505;-69
2023/06/12 07:42:37;;;;;;;;;8.50;7.25;26.80;49.70;;;;;;111266;1243;53375;-68
2023/06/12 07:45:05;;;;;;;;;8.00;7.00;26.80;49.50;;;;;;111467;1239;44548;-69
2023/06/12 07:47:32;;;;;;;;;8.00;7.00;26.80;49.10;;;;;;111506;1241;49238;-70
2023/06/12 07:49:59;;;;;;;;;7.33;6.67;26.80;49.20;;;;;;111418;1244;49015;-69
2023/06/12 07:52:26;;;;;;;;;7.00;6.00;26.80;49.50;;;;;;111500;1243;53801;-67
2023/06/12 07:54:53;;;;;;;;;8.75;7.75;26.80;49.50;;;;;;111479;1243;44820;-68
2023/06/12 07:57:20;;;;;;;;;9.50;8.00;26.80;49.70;;;;;;111553;1243;49121;-67
2023/06/12 07:59:48;;;;;;;;;8.00;7.00;26.80;49.60;;;;;;111726;1238;50144;-72
2023/06/12 08:02:16;;;;;;;;;8.00;7.00;26.90;49.60;;;;;;111636;1242;53610;-69
2023/06/12 08:04:44;;;;;;;;;9.50;8.75;26.90;49.70;;;;;;111855;1241;44065;-68
2023/06/12 08:07:13;;;;;;;;;7.00;6.00;26.90;49.60;;;;;;111751;1238;48514;-70
2023/06/12 08:09:40;;;;;;;;;9.75;7.50;26.90;49.40;;;;;;111708;1240;49473;-68
2023/06/12 08:12:10;;;;;;;;;8.00;7.00;26.90;49.40;;;;;;111766;1238;53856;-68
2023/06/12 08:14:39;;;;;;;;;8.00;7.00;27.00;49.30;;;;;;111684;1243;44350;-69
2023/06/12 08:17:08;;;;;;;;;8.00;6.75;27.00;49.00;;;;;;111610;1243;49044;-67
2023/06/12 08:19:35;;;;;;;;;8.00;7.00;26.90;48.90;;;;;;111606;1240;48903;-66
2023/06/12 08:22:07;;;;;;;;;8.00;7.00;27.00;49.30;;;;;;111768;1241;53623;-68
2023/06/12 08:24:35;;;;;;;;;7.00;6.00;27.00;49.40;;;;;;111553;1238;44600;-66
2023/06/12 08:27:02;;;;;;;;;7.75;6.75;26.90;49.40;;;;;;111588;1238;49131;-67
2023/06/12 08:29:30;;;;;;;;;7.00;6.00;27.00;49.30;;;;;;111515;1242;48665;-67
2023/06/12 08:31:57;;;;;;;;;7.00;6.00;27.00;49.00;;;;;;111675;1241;54917;-65
2023/06/12 08:34:25;;;;;;;;;8.00;7.00;26.90;48.90;;;;;;111403;1241;44849;-67
2023/06/12 08:36:53;;;;;;;;;7.75;6.75;26.90;49.00;;;;;;111433;1243;48973;-67
2023/06/12 08:39:20;;;;;;;;;8.75;7.75;26.90;48.90;;;;;;111538;1238;48658;-68
2023/06/12 08:42:03;;;;;;;;;9.75;6.75;26.90;48.40;;;;;;111387;1238;53899;-69
2023/06/12 08:44:33;;;;;;;;;8.00;7.00;26.90;48.60;;;;;;111839;1241;45085;-69
2023/06/12 08:47:03;;;;;;;;;7.00;6.00;26.90;48.90;;;;;;111559;1243;48282;-70
2023/06/12 08:49:31;;;;;;;;;7.75;7.00;26.90;48.40;;;;;;111469;1241;49072;-67
2023/06/12 08:52:00;;;;;;;;;8.25;7.00;26.90;48.20;;;;;;111827;1237;53806;-67
2023/06/12 08:54:28;;;;;;;;;7.00;6.00;26.90;48.50;;;;;;111968;1240;44896;-66
2023/06/12 08:56:57;;;;;;;;;7.00;6.00;26.90;48.90;;;;;;111714;1240;48376;-67
2023/06/12 08:59:24;;;;;;;;;7.00;6.00;26.90;48.10;;;;;;111927;1243;48579;-70
2023/06/12 09:01:56;;;;;;;;;8.00;7.00;27.00;48.60;;;;;;111471;1240;53253;-68
2023/06/12 09:04:28;;;;;;;;;9.00;8.00;27.00;48.40;;;;;;111825;1241;44847;-65
2023/06/12 09:07:01;;;;;;;;;8.00;7.00;26.90;47.90;;;;;;111640;1238;49510;-66
2023/06/12 09:09:41;;;;;;;;;7.50;6.00;26.90;47.70;;;;;;111783;1243;49217;-64
2023/06/12 09:12:10;;;;;;;;;7.75;6.75;26.90;48.00;;;;;;111472;1238;53891;-66
2023/06/12 09:14:41;;;;;;;;;7.00;6.00;26.80;48.50;;;;;;111646;1241;44870;-65
2023/06/12 09:17:08;;;;;;;;;7.75;6.75;26.80;49.20;;;;;;111477;1244;49173;-65
2023/06/12 09:19:40;;;;;;;;;9.00;7.00;26.80;49.30;;;;;;111596;1241;49027;-64
2023/06/12 09:22:07;;;;;;;;;8.50;7.50;26.70;49.60;;;;;;111350;1241;54217;-66
2023/06/12 09:24:34;;;;;;;;;7.75;6.75;26.70;49.60;;;;;;111483;1243;44743;-65
2023/06/12 09:27:02;;;;;;;;;7.50;6.00;26.70;50.20;;;;;;111493;1240;48651;-64
2023/06/12 09:29:31;;;;;;;;;9.00;7.00;26.70;50.00;;;;;;111502;1240;49477;-65
2023/06/12 09:31:59;;;;;;;;;9.25;8.00;26.70;50.30;;;;;;111425;1240;55064;-64
2023/06/12 09:34:26;;;;;;;;;7.00;6.00;26.70;50.10;;;;;;111412;1241;44285;-64
2023/06/12 09:36:55;;;;;;;;;7.00;6.00;26.70;50.40;;;;;;111361;1238;49013;-61
2023/06/12 09:39:29;;;;;;;;;9.00;7.00;26.80;50.30;;;;;;111615;1241;49182;-63
2023/06/12 09:41:57;;;;;;;;;8.00;7.00;26.70;50.30;;;;;;111420;1238;53830;-64
2023/06/12 09:44:25;;;;;;;;;8.75;7.25;26.70;50.30;;;;;;111663;1241;45054;-62
2023/06/12 09:46:52;;;;;;;;;7.75;6.75;26.70;50.40;;;;;;111272;1243;48623;-62
2023/06/12 09:49:22;;;;;;;;;8.00;7.00;26.70;50.50;;;;;;111419;1238;49419;-68
2023/06/12 09:51:51;;;;;;;;;8.75;7.75;26.70;50.70;;;;;;111250;1243;54762;-66
2023/06/12 09:54:21;;;;;;;;;8.00;7.00;26.70;50.60;;;;;;111391;1241;45191;-64
2023/06/12 09:56:51;;;;;;;;;7.75;6.75;26.70;50.90;;;;;;111490;1238;48580;-68
2023/06/12 09:59:19;;;;;;;;;8.75;7.50;26.70;51.00;;;;;;111308;1243;48674;-65
2023/06/12 10:01:49;;;;;;;;;7.00;6.00;26.70;51.10;;;;;;111574;1238;53260;-62
2023/06/12 10:04:25;;;;;;;;;8.00;7.00;26.70;51.00;;;;;;111646;1243;44923;-63
2023/06/12 10:07:03;;;;;;;;;8.00;7.00;26.80;51.20;;;;;;111593;1240;49140;-64
2023/06/12 10:09:31;;;;;;;;;8.00;7.00;26.80;51.00;;;;;;111694;1241;49132;-65
2023/06/12 10:11:59;;;;;;;;;7.00;6.00;26.90;51.00;;;;;;111471;1243;54931;-64
2023/06/12 10:14:28;;;;;;;;;9.00;8.00;26.90;51.00;;;;;;111623;1240;44814;-63
2023/06/12 10:16:56;;;;;;;;;10.00;7.00;26.90;51.00;;;;;;111383;1242;48414;-65
2023/06/12 10:19:24;;;;;;;;;8.75;7.75;26.90;51.20;;;;;;111486;1244;48599;-64
2023/06/12 10:21:55;;;;;;;;;8.75;8.00;26.90;51.10;;;;;;111576;1243;53256;-63
2023/06/12 10:24:22;;;;;;;;;8.00;7.00;26.90;51.10;;;;;;111544;1238;44394;-65
2023/06/12 10:26:53;;;;;;;;;8.00;7.00;26.90;51.00;;;;;;111528;1238;49782;-66
2023/06/12 10:29:26;;;;;;;;;7.00;6.00;27.00;51.00;;;;;;111506;1241;49559;-65
2023/06/12 10:31:53;;;;;;;;;7.00;6.00;27.00;51.00;;;;;;111572;1240;55051;-65
2023/06/12 10:34:20;;;;;;;;;8.00;7.00;27.00;51.00;;;;;;111624;1238;44412;-66
2023/06/12 10:36:48;;;;;;;;;8.25;6.75;27.00;50.90;;;;;;111711;1243;49568;-64
2023/06/12 10:39:29;;;;;;;;;8.00;7.00;27.10;51.20;;;;;;111724;1244;48986;-63
2023/06/12 10:41:58;;;;;;;;;7.75;6.75;27.10;51.00;;;;;;111632;1240;54033;-62
2023/06/12 10:44:35;;;;;;;;;10.00;7.25;27.20;51.20;;;;;;111564;1241;45128;-63
2023/06/12 10:47:03;;;;;;;;;9.00;7.00;27.20;50.80;;;;;;111533;1244;49696;-61
2023/06/12 10:49:30;;;;;;;;;9.00;8.00;27.20;50.80;;;;;;111525;1240;49061;-62
2023/06/12 10:51:59;;;;;;;;;9.00;8.00;27.20;51.00;;;;;;111498;1240;54449;-61
2023/06/12 10:54:27;;;;;;;;;8.00;7.00;27.20;50.80;;;;;;111631;1240;45862;-63
2023/06/12 10:57:02;;;;;;;;;7.50;6.00;27.20;50.80;;;;;;111741;1240;49739;-63
2023/06/12 10:59:36;;;;;;;;;10.00;9.00;27.20;50.80;;;;;;111698;1239;49351;-63
2023/06/12 11:02:03;;;;;;;;;9.25;7.00;27.30;50.40;;;;;;111730;1241;53321;-63
2023/06/12 11:04:37;;;;;;;;;8.00;7.00;27.30;51.10;;;;;;111505;1244;44702;-63
2023/06/12 11:07:05;;;;;;;;;8.75;7.75;27.30;50.70;;;;;;111486;1241;48973;-63
2023/06/12 11:09:39;;;;;;;;;8.00;7.00;27.40;50.70;;;;;;111615;1240;48554;-63
2023/06/12 11:12:07;;;;;;;;;10.50;8.00;27.40;51.20;;;;;;111559;1238;53838;-62
2023/06/12 11:14:34;;;;;;;;;10.00;7.25;27.40;50.90;;;;;;111574;1244;44108;-63
2023/06/12 11:17:01;;;;;;;;;10.50;8.00;27.40;50.80;;;;;;111535;1240;49035;-63
2023/06/12 11:19:29;;;;;;;;;9.00;8.00;27.40;50.80;;;;;;111623;1240;49095;-62
2023/06/12 11:21:56;;;;;;;;;8.00;7.00;27.50;50.80;;;;;;111579;1240;53485;-61
2023/06/12 11:24:23;;;;;;;;;8.75;7.75;27.50;50.90;;;;;;111507;1241;44368;-63
2023/06/12 11:26:51;;;;;;;;;8.00;7.00;27.50;51.20;;;;;;111446;1244;49491;-65
2023/06/12 11:29:21;;;;;;;;;10.00;8.25;27.50;50.90;;;;;;111608;1244;49795;-64
2023/06/12 11:31:50;;;;;;;;;8.00;7.00;27.50;50.80;;;;;;111586;1243;53584;-63
2023/06/12 11:34:17;;;;;;;;;7.00;6.00;27.50;50.50;;;;;;111625;1242;44557;-63
2023/06/12 11:36:44;;;;;;;;;8.00;7.00;27.50;50.90;;;;;;111449;1244;49314;-63
2023/06/12 11:39:18;;;;;;;;;8.67;7.67;27.60;50.80;;;;;;111453;1240;48985;-63
2023/06/12 11:41:49;;;;;;;;;8.75;7.75;27.60;50.70;;;;;;111582;1245;53936;-64
2023/06/12 11:44:16;;;;;;;;;7.50;6.50;27.60;50.70;;;;;;111677;1240;44395;-65
2023/06/12 11:46:44;;;;;;;;;12.50;8.00;27.60;50.70;;;;;;111605;1238;48357;-64
2023/06/12 11:49:13;;;;;;;;;8.00;7.00;27.60;50.60;;;;;;111769;1243;49019;-65
2023/06/12 11:51:40;;;;;;;;;9.75;8.75;27.60;50.60;;;;;;111795;1238;53521;-64
2023/06/12 11:54:09;;;;;;;;;8.00;7.00;27.70;50.60;;;;;;111777;1240;46070;-65
2023/06/12 11:56:41;;;;;;;;;8.75;7.75;27.70;50.60;;;;;;111748;1242;49354;-65
2023/06/12 11:59:09;;;;;;;;;8.00;7.00;27.70;50.60;;;;;;111326;1240;48785;-66
2023/06/12 12:01:37;;;;;;;;;8.00;6.75;27.70;50.40;;;;;;111350;1244;54550;-64
2023/06/12 12:04:06;;;;;;;;;9.50;7.00;27.70;50.50;;;;;;111509;1244;46086;-66
2023/06/12 12:06:47;;;;;;;;;7.50;6.00;27.70;50.50;;;;;;111663;1238;49343;-66
2023/06/12 12:09:15;;;;;;;;;8.00;7.25;27.70;50.60;;;;;;111444;1244;49684;-66
2023/06/12 12:11:42;;;;;;;;;11.25;8.00;27.70;50.60;;;;;;111394;1244;53997;-64
2023/06/12 12:14:09;;;;;;;;;7.67;6.33;27.70;50.90;;;;;;111420;1240;45127;-65
2023/06/12 12:16:39;;;;;;;;;9.00;8.00;27.70;50.70;;;;;;111566;1240;48756;-64
2023/06/12 12:19:16;;;;;;;;;10.25;7.50;27.70;50.80;;;;;;111470;1240;48913;-65
2023/06/12 12:21:45;;;;;;;;;10.33;8.00;27.70;51.00;;;;;;111393;1238;54301;-64
2023/06/12 12:24:14;;;;;;;;;8.00;7.00;27.60;50.80;;;;;;111585;1238;44690;-64
2023/06/12 12:26:42;;;;;;;;;9.00;8.00;27.70;50.90;;;;;;111525;1241;49606;-66
2023/06/12 12:29:10;;;;;;;;;9.25;8.00;27.70;50.90;;;;;;111435;1244;49626;-64
2023/06/12 12:31:37;;;;;;;;;8.75;7.75;27.70;50.90;;;;;;111404;1243;54042;-63
2023/06/12 12:34:04;;;;;;;;;9.00;8.00;27.70;50.90;;;;;;111434;1238;44081;-62